sensor_id;sensor_type;location;lat;lon;timestamp;temperature;humidity
17726;DHT22;8983;53.156;17.960;2023-03-14T00:01:13;10.30;99.90
17726;DHT22;8983;53.156;17.960;2023-03-14T00:03:43;10.30;99.90
17726;DHT22;8983;53.156;17.960;2023-03-14T00:06:12;10.40;99.90
17726;DHT22;8983;53.156;17.960;2023-03-14T00:08:41;10.30;99.90
17726;DHT22;8983;53.156;17.960;2023-03-14T00:11:10;10.40;99.90
17726;DHT22;8983;53.156;17.960;2023-03-14T00:13:39;10.40;99.90
17726;DHT22;8983;53.156;17.960;2023-03-14T00:16:09;10.40;99.90
17726;DHT22;8983;53.156;17.960;2023-03-14T00:18:38;10.40;99.90
17726;DHT22;8983;53.156;17.960;2023-03-14T00:21:09;10.40;99.90
17726;DHT22;8983;53.156;17.960;2023-03-14T00:23:39;10.40;99.90
17726;DHT22;8983;53.156;17.960;2023-03-14T00:26:09;10.40;99.90
17726;DHT22;8983;53.156;17.960;2023-03-14T00:28:38;10.40;99.90
17726;DHT22;8983;53.156;17.960;2023-03-14T00:31:08;10.50;99.90
17726;DHT22;8983;53.156;17.960;2023-03-14T00:33:36;10.50;99.90
17726;DHT22;8983;53.156;17.960;2023-03-14T00:36:06;10.50;99.90
17726;DHT22;8983;53.156;17.960;2023-03-14T00:38:38;10.50;99.90
17726;DHT22;8983;53.156;17.960;2023-03-14T00:41:08;10.50;99.90
17726;DHT22;8983;53.156;17.960;2023-03-14T00:43:37;10.50;99.90
17726;DHT22;8983;53.156;17.960;2023-03-14T00:46:05;10.50;99.90
17726;DHT22;8983;53.156;17.960;2023-03-14T00:48:34;10.50;99.90
17726;DHT22;8983;53.156;17.960;2023-03-14T00:51:04;10.50;99.90
17726;DHT22;8983;53.156;17.960;2023-03-14T00:53:37;10.50;99.90
17726;DHT22;8983;53.156;17.960;2023-03-14T00:56:07;10.50;99.90
17726;DHT22;8983;53.156;17.960;2023-03-14T00:58:37;10.50;99.90
17726;DHT22;8983;53.156;17.960;2023-03-14T01:01:06;10.50;99.90
17726;DHT22;8983;53.156;17.960;2023-03-14T01:03:34;10.50;99.90
17726;DHT22;8983;53.156;17.960;2023-03-14T01:06:10;10.40;99.90
17726;DHT22;8983;53.156;17.960;2023-03-14T01:08:40;10.50;99.90
17726;DHT22;8983;53.156;17.960;2023-03-14T01:11:10;10.50;99.90
17726;DHT22;8983;53.156;17.960;2023-03-14T01:13:38;10.40;99.90
17726;DHT22;8983;53.156;17.960;2023-03-14T01:16:08;10.40;99.90
17726;DHT22;8983;53.156;17.960;2023-03-14T01:18:38;10.40;99.90
17726;DHT22;8983;53.156;17.960;2023-03-14T01:21:11;10.50;99.90
17726;DHT22;8983;53.156;17.960;2023-03-14T01:23:41;10.50;99.90
17726;DHT22;8983;53.156;17.960;2023-03-14T01:26:10;10.50;99.90
17726;DHT22;8983;53.156;17.960;2023-03-14T01:28:38;10.50;99.90
17726;DHT22;8983;53.156;17.960;2023-03-14T01:31:08;10.50;99.90
17726;DHT22;8983;53.156;17.960;2023-03-14T01:33:37;10.50;99.90
17726;DHT22;8983;53.156;17.960;2023-03-14T01:36:07;10.50;99.90
17726;DHT22;8983;53.156;17.960;2023-03-14T01:38:37;10.50;99.90
17726;DHT22;8983;53.156;17.960;2023-03-14T01:41:10;10.50;99.90
17726;DHT22;8983;53.156;17.960;2023-03-14T01:43:39;10.50;99.90
17726;DHT22;8983;53.156;17.960;2023-03-14T01:46:24;10.50;99.90
17726;DHT22;8983;53.156;17.960;2023-03-14T01:48:57;10.50;99.90
17726;DHT22;8983;53.156;17.960;2023-03-14T01:51:30;10.50;99.90
17726;DHT22;8983;53.156;17.960;2023-03-14T01:54:06;10.50;99.90
17726;DHT22;8983;53.156;17.960;2023-03-14T01:56:37;10.50;99.90
17726;DHT22;8983;53.156;17.960;2023-03-14T01:59:08;10.50;99.90
17726;DHT22;8983;53.156;17.960;2023-03-14T02:01:37;10.30;99.90
17726;DHT22;8983;53.156;17.960;2023-03-14T02:04:07;10.50;99.90
17726;DHT22;8983;53.156;17.960;2023-03-14T02:06:42;10.50;99.90
17726;DHT22;8983;53.156;17.960;2023-03-14T02:09:12;10.70;99.90
17726;DHT22;8983;53.156;17.960;2023-03-14T02:11:42;10.50;99.90
17726;DHT22;8983;53.156;17.960;2023-03-14T02:14:17;10.50;99.90
17726;DHT22;8983;53.156;17.960;2023-03-14T02:16:48;10.50;99.90
17726;DHT22;8983;53.156;17.960;2023-03-14T02:19:19;10.50;99.90
17726;DHT22;8983;53.156;17.960;2023-03-14T02:21:54;10.50;99.90
17726;DHT22;8983;53.156;17.960;2023-03-14T02:24:30;10.50;99.90
17726;DHT22;8983;53.156;17.960;2023-03-14T02:27:07;10.50;99.90
17726;DHT22;8983;53.156;17.960;2023-03-14T02:29:37;10.50;99.90
17726;DHT22;8983;53.156;17.960;2023-03-14T02:32:07;10.50;99.90
17726;DHT22;8983;53.156;17.960;2023-03-14T02:34:36;10.50;99.90
17726;DHT22;8983;53.156;17.960;2023-03-14T02:37:05;10.50;99.90
17726;DHT22;8983;53.156;17.960;2023-03-14T02:39:36;10.50;99.90
17726;DHT22;8983;53.156;17.960;2023-03-14T02:42:07;10.50;99.90
17726;DHT22;8983;53.156;17.960;2023-03-14T02:44:35;10.50;99.90
17726;DHT22;8983;53.156;17.960;2023-03-14T02:47:04;10.60;99.90
17726;DHT22;8983;53.156;17.960;2023-03-14T02:49:33;10.60;99.90
17726;DHT22;8983;53.156;17.960;2023-03-14T02:52:02;10.60;99.90
17726;DHT22;8983;53.156;17.960;2023-03-14T02:54:30;10.60;99.90
17726;DHT22;8983;53.156;17.960;2023-03-14T02:56:58;10.60;99.90
17726;DHT22;8983;53.156;17.960;2023-03-14T02:59:27;10.70;99.90
17726;DHT22;8983;53.156;17.960;2023-03-14T03:01:55;10.70;99.90
17726;DHT22;8983;53.156;17.960;2023-03-14T03:04:24;10.80;99.90
17726;DHT22;8983;53.156;17.960;2023-03-14T03:06:52;10.70;99.90
17726;DHT22;8983;53.156;17.960;2023-03-14T03:09:20;10.80;99.90
17726;DHT22;8983;53.156;17.960;2023-03-14T03:11:48;10.80;99.90
17726;DHT22;8983;53.156;17.960;2023-03-14T03:14:16;10.80;99.90
17726;DHT22;8983;53.156;17.960;2023-03-14T03:16:45;10.80;99.90
17726;DHT22;8983;53.156;17.960;2023-03-14T03:19:13;10.80;99.90
17726;DHT22;8983;53.156;17.960;2023-03-14T03:21:42;10.80;99.90
17726;DHT22;8983;53.156;17.960;2023-03-14T03:24:10;10.80;99.90
17726;DHT22;8983;53.156;17.960;2023-03-14T03:26:38;10.80;99.90
17726;DHT22;8983;53.156;17.960;2023-03-14T03:29:06;10.90;99.90
17726;DHT22;8983;53.156;17.960;2023-03-14T03:31:36;10.90;99.90
17726;DHT22;8983;53.156;17.960;2023-03-14T03:34:06;10.90;99.90
17726;DHT22;8983;53.156;17.960;2023-03-14T03:36:34;10.90;99.90
17726;DHT22;8983;53.156;17.960;2023-03-14T03:39:02;10.90;99.90
17726;DHT22;8983;53.156;17.960;2023-03-14T03:41:30;10.90;99.90
17726;DHT22;8983;53.156;17.960;2023-03-14T03:43:59;10.90;99.90
17726;DHT22;8983;53.156;17.960;2023-03-14T03:46:27;10.90;99.90
17726;DHT22;8983;53.156;17.960;2023-03-14T03:48:55;10.90;99.90
17726;DHT22;8983;53.156;17.960;2023-03-14T03:51:25;10.80;99.90
17726;DHT22;8983;53.156;17.960;2023-03-14T03:53:53;10.70;99.90
17726;DHT22;8983;53.156;17.960;2023-03-14T03:56:21;10.60;99.90
17726;DHT22;8983;53.156;17.960;2023-03-14T03:58:50;10.60;99.90
17726;DHT22;8983;53.156;17.960;2023-03-14T04:01:18;10.60;99.90
17726;DHT22;8983;53.156;17.960;2023-03-14T04:03:46;10.50;99.90
17726;DHT22;8983;53.156;17.960;2023-03-14T04:06:14;10.50;99.90
17726;DHT22;8983;53.156;17.960;2023-03-14T04:08:43;10.50;99.90
17726;DHT22;8983;53.156;17.960;2023-03-14T04:11:11;10.50;99.90
17726;DHT22;8983;53.156;17.960;2023-03-14T04:13:42;10.40;99.90
17726;DHT22;8983;53.156;17.960;2023-03-14T04:16:14;10.40;99.90
17726;DHT22;8983;53.156;17.960;2023-03-14T04:18:44;10.40;99.90
17726;DHT22;8983;53.156;17.960;2023-03-14T04:21:12;10.40;99.90
17726;DHT22;8983;53.156;17.960;2023-03-14T04:23:40;10.40;99.90
17726;DHT22;8983;53.156;17.960;2023-03-14T04:26:10;10.40;99.90
17726;DHT22;8983;53.156;17.960;2023-03-14T04:28:37;10.40;99.90
17726;DHT22;8983;53.156;17.960;2023-03-14T04:31:09;10.40;99.90
17726;DHT22;8983;53.156;17.960;2023-03-14T04:33:38;10.40;99.90
17726;DHT22;8983;53.156;17.960;2023-03-14T04:36:08;10.40;99.90
17726;DHT22;8983;53.156;17.960;2023-03-14T04:38:36;10.40;99.90
17726;DHT22;8983;53.156;17.960;2023-03-14T04:41:05;10.30;99.90
17726;DHT22;8983;53.156;17.960;2023-03-14T04:43:35;10.30;99.90
17726;DHT22;8983;53.156;17.960;2023-03-14T04:46:03;10.30;99.90
17726;DHT22;8983;53.156;17.960;2023-03-14T04:48:31;10.30;99.90
17726;DHT22;8983;53.156;17.960;2023-03-14T04:50:59;10.30;99.90
17726;DHT22;8983;53.156;17.960;2023-03-14T04:53:27;10.30;99.90
17726;DHT22;8983;53.156;17.960;2023-03-14T04:55:58;10.40;99.90
17726;DHT22;8983;53.156;17.960;2023-03-14T04:58:26;10.40;99.90
17726;DHT22;8983;53.156;17.960;2023-03-14T05:00:55;10.40;99.90
17726;DHT22;8983;53.156;17.960;2023-03-14T05:03:28;10.40;99.90
17726;DHT22;8983;53.156;17.960;2023-03-14T05:05:56;10.40;99.90
17726;DHT22;8983;53.156;17.960;2023-03-14T05:08:25;10.40;99.90
17726;DHT22;8983;53.156;17.960;2023-03-14T05:10:54;10.40;99.90
17726;DHT22;8983;53.156;17.960;2023-03-14T05:13:22;10.30;99.90
17726;DHT22;8983;53.156;17.960;2023-03-14T05:15:50;10.40;99.90
17726;DHT22;8983;53.156;17.960;2023-03-14T05:18:20;10.30;99.90
17726;DHT22;8983;53.156;17.960;2023-03-14T05:20:50;10.40;99.90
17726;DHT22;8983;53.156;17.960;2023-03-14T05:23:18;10.30;99.90
17726;DHT22;8983;53.156;17.960;2023-03-14T05:25:47;10.20;99.90
17726;DHT22;8983;53.156;17.960;2023-03-14T05:28:15;10.30;99.90
17726;DHT22;8983;53.156;17.960;2023-03-14T05:30:43;10.20;99.90
17726;DHT22;8983;53.156;17.960;2023-03-14T05:33:11;10.20;99.90
17726;DHT22;8983;53.156;17.960;2023-03-14T05:35:41;10.20;99.90
17726;DHT22;8983;53.156;17.960;2023-03-14T05:38:10;10.20;99.90
17726;DHT22;8983;53.156;17.960;2023-03-14T05:40:38;10.20;99.90
17726;DHT22;8983;53.156;17.960;2023-03-14T05:43:06;10.20;99.90
17726;DHT22;8983;53.156;17.960;2023-03-14T05:45:35;10.20;99.90
17726;DHT22;8983;53.156;17.960;2023-03-14T05:48:03;10.20;99.90
17726;DHT22;8983;53.156;17.960;2023-03-14T05:50:32;10.20;99.90
17726;DHT22;8983;53.156;17.960;2023-03-14T05:53:01;10.20;99.90
17726;DHT22;8983;53.156;17.960;2023-03-14T05:55:30;10.30;99.90
17726;DHT22;8983;53.156;17.960;2023-03-14T05:57:58;10.10;99.90
17726;DHT22;8983;53.156;17.960;2023-03-14T06:00:26;10.10;99.90
17726;DHT22;8983;53.156;17.960;2023-03-14T06:02:54;10.10;99.90
17726;DHT22;8983;53.156;17.960;2023-03-14T06:05:22;10.10;99.90
17726;DHT22;8983;53.156;17.960;2023-03-14T06:07:50;10.20;99.90
17726;DHT22;8983;53.156;17.960;2023-03-14T06:10:19;10.20;99.90
17726;DHT22;8983;53.156;17.960;2023-03-14T06:12:48;10.20;99.90
17726;DHT22;8983;53.156;17.960;2023-03-14T06:15:16;10.20;99.90
17726;DHT22;8983;53.156;17.960;2023-03-14T06:17:44;10.20;99.90
17726;DHT22;8983;53.156;17.960;2023-03-14T06:20:12;10.20;99.90
17726;DHT22;8983;53.156;17.960;2023-03-14T06:22:40;10.20;99.90
17726;DHT22;8983;53.156;17.960;2023-03-14T06:25:09;10.20;99.90
17726;DHT22;8983;53.156;17.960;2023-03-14T06:27:38;10.20;99.90
17726;DHT22;8983;53.156;17.960;2023-03-14T06:30:08;10.20;99.90
17726;DHT22;8983;53.156;17.960;2023-03-14T06:32:36;10.20;99.90
17726;DHT22;8983;53.156;17.960;2023-03-14T06:35:05;10.20;99.90
17726;DHT22;8983;53.156;17.960;2023-03-14T06:37:33;10.20;99.90
17726;DHT22;8983;53.156;17.960;2023-03-14T06:40:01;10.20;99.90
17726;DHT22;8983;53.156;17.960;2023-03-14T06:42:32;10.20;99.90
17726;DHT22;8983;53.156;17.960;2023-03-14T06:45:02;10.30;99.90
17726;DHT22;8983;53.156;17.960;2023-03-14T06:47:30;10.30;99.90
17726;DHT22;8983;53.156;17.960;2023-03-14T06:49:58;10.30;99.90
17726;DHT22;8983;53.156;17.960;2023-03-14T06:52:26;10.30;99.90
17726;DHT22;8983;53.156;17.960;2023-03-14T06:54:54;10.30;99.90
17726;DHT22;8983;53.156;17.960;2023-03-14T06:57:22;10.30;99.90
17726;DHT22;8983;53.156;17.960;2023-03-14T06:59:50;10.30;99.90
17726;DHT22;8983;53.156;17.960;2023-03-14T07:02:22;10.40;99.90
17726;DHT22;8983;53.156;17.960;2023-03-14T07:05:07;10.40;99.90
17726;DHT22;8983;53.156;17.960;2023-03-14T07:07:36;10.40;99.90
17726;DHT22;8983;53.156;17.960;2023-03-14T07:10:05;10.50;99.90
17726;DHT22;8983;53.156;17.960;2023-03-14T07:12:35;10.50;99.90
17726;DHT22;8983;53.156;17.960;2023-03-14T07:15:04;10.50;99.90
17726;DHT22;8983;53.156;17.960;2023-03-14T07:17:46;10.60;99.90
17726;DHT22;8983;53.156;17.960;2023-03-14T07:20:15;10.60;99.90
17726;DHT22;8983;53.156;17.960;2023-03-14T07:22:44;10.60;99.90
17726;DHT22;8983;53.156;17.960;2023-03-14T07:25:14;10.60;99.90
17726;DHT22;8983;53.156;17.960;2023-03-14T07:27:43;10.60;99.90
17726;DHT22;8983;53.156;17.960;2023-03-14T07:30:12;10.70;99.90
17726;DHT22;8983;53.156;17.960;2023-03-14T07:32:40;10.70;99.90
17726;DHT22;8983;53.156;17.960;2023-03-14T07:35:09;10.80;99.90
17726;DHT22;8983;53.156;17.960;2023-03-14T07:37:37;10.80;99.90
17726;DHT22;8983;53.156;17.960;2023-03-14T07:40:06;10.80;99.90
17726;DHT22;8983;53.156;17.960;2023-03-14T07:42:35;10.80;99.90
17726;DHT22;8983;53.156;17.960;2023-03-14T07:45:03;10.90;99.90
17726;DHT22;8983;53.156;17.960;2023-03-14T07:47:33;10.90;99.90
17726;DHT22;8983;53.156;17.960;2023-03-14T07:50:01;11.00;99.90
17726;DHT22;8983;53.156;17.960;2023-03-14T07:52:31;11.00;99.90
17726;DHT22;8983;53.156;17.960;2023-03-14T07:54:59;11.00;99.90
17726;DHT22;8983;53.156;17.960;2023-03-14T07:57:27;11.00;99.90
17726;DHT22;8983;53.156;17.960;2023-03-14T07:59:55;11.00;99.90
17726;DHT22;8983;53.156;17.960;2023-03-14T08:02:23;11.10;99.90
17726;DHT22;8983;53.156;17.960;2023-03-14T08:04:51;11.10;99.90
17726;DHT22;8983;53.156;17.960;2023-03-14T08:07:19;11.10;99.90
17726;DHT22;8983;53.156;17.960;2023-03-14T08:09:49;11.10;99.90
17726;DHT22;8983;53.156;17.960;2023-03-14T08:12:17;11.10;99.90
17726;DHT22;8983;53.156;17.960;2023-03-14T08:14:45;11.10;99.90
17726;DHT22;8983;53.156;17.960;2023-03-14T08:17:13;11.20;99.90
17726;DHT22;8983;53.156;17.960;2023-03-14T08:19:41;11.20;99.90
17726;DHT22;8983;53.156;17.960;2023-03-14T08:22:09;11.20;99.90
17726;DHT22;8983;53.156;17.960;2023-03-14T08:24:37;11.20;99.90
17726;DHT22;8983;53.156;17.960;2023-03-14T08:27:07;11.30;99.90
17726;DHT22;8983;53.156;17.960;2023-03-14T08:29:36;11.30;99.90
17726;DHT22;8983;53.156;17.960;2023-03-14T08:32:05;11.30;99.90
17726;DHT22;8983;53.156;17.960;2023-03-14T08:34:33;11.30;99.90
17726;DHT22;8983;53.156;17.960;2023-03-14T08:37:01;11.30;99.90
17726;DHT22;8983;53.156;17.960;2023-03-14T08:39:36;11.30;99.90
17726;DHT22;8983;53.156;17.960;2023-03-14T08:42:04;11.30;99.90
17726;DHT22;8983;53.156;17.960;2023-03-14T08:44:34;11.30;99.90
17726;DHT22;8983;53.156;17.960;2023-03-14T08:47:02;11.30;99.90
17726;DHT22;8983;53.156;17.960;2023-03-14T08:49:30;11.30;99.90
17726;DHT22;8983;53.156;17.960;2023-03-14T08:51:58;11.30;99.90
17726;DHT22;8983;53.156;17.960;2023-03-14T08:54:26;11.30;99.90
17726;DHT22;8983;53.156;17.960;2023-03-14T08:56:54;11.30;99.90
17726;DHT22;8983;53.156;17.960;2023-03-14T08:59:23;11.30;99.90
17726;DHT22;8983;53.156;17.960;2023-03-14T09:01:53;11.30;99.90
17726;DHT22;8983;53.156;17.960;2023-03-14T09:04:21;11.30;99.90
17726;DHT22;8983;53.156;17.960;2023-03-14T09:06:50;11.30;99.90
17726;DHT22;8983;53.156;17.960;2023-03-14T09:09:18;11.30;99.90
17726;DHT22;8983;53.156;17.960;2023-03-14T09:11:46;11.30;99.90
17726;DHT22;8983;53.156;17.960;2023-03-14T09:14:14;11.40;99.90
17726;DHT22;8983;53.156;17.960;2023-03-14T09:16:41;11.40;99.90
17726;DHT22;8983;53.156;17.960;2023-03-14T09:19:11;11.50;99.90
17726;DHT22;8983;53.156;17.960;2023-03-14T09:21:39;11.60;99.90
17726;DHT22;8983;53.156;17.960;2023-03-14T09:24:07;11.60;99.90
17726;DHT22;8983;53.156;17.960;2023-03-14T09:26:35;11.70;99.90
17726;DHT22;8983;53.156;17.960;2023-03-14T09:29:03;11.80;99.90
17726;DHT22;8983;53.156;17.960;2023-03-14T09:31:31;11.80;99.90
17726;DHT22;8983;53.156;17.960;2023-03-14T09:33:59;11.90;99.90
17726;DHT22;8983;53.156;17.960;2023-03-14T09:36:30;12.00;99.90
17726;DHT22;8983;53.156;17.960;2023-03-14T09:38:58;12.00;99.90
17726;DHT22;8983;53.156;17.960;2023-03-14T09:41:28;12.20;99.90
17726;DHT22;8983;53.156;17.960;2023-03-14T09:44:03;12.20;99.90
17726;DHT22;8983;53.156;17.960;2023-03-14T09:46:34;12.20;99.90
17726;DHT22;8983;53.156;17.960;2023-03-14T09:49:09;12.20;99.90
17726;DHT22;8983;53.156;17.960;2023-03-14T09:51:40;12.30;99.90
17726;DHT22;8983;53.156;17.960;2023-03-14T09:54:22;12.30;99.90
17726;DHT22;8983;53.156;17.960;2023-03-14T09:56:53;12.40;99.90
17726;DHT22;8983;53.156;17.960;2023-03-14T09:59:22;12.30;99.90
17726;DHT22;8983;53.156;17.960;2023-03-14T10:01:50;12.30;99.90
17726;DHT22;8983;53.156;17.960;2023-03-14T10:04:22;12.40;99.90
17726;DHT22;8983;53.156;17.960;2023-03-14T10:06:52;12.40;99.90
17726;DHT22;8983;53.156;17.960;2023-03-14T10:09:22;12.30;99.90
17726;DHT22;8983;53.156;17.960;2023-03-14T10:11:54;12.30;99.90
17726;DHT22;8983;53.156;17.960;2023-03-14T10:14:31;12.30;99.90
17726;DHT22;8983;53.156;17.960;2023-03-14T10:17:06;12.20;99.90
17726;DHT22;8983;53.156;17.960;2023-03-14T10:19:36;12.30;99.90
17726;DHT22;8983;53.156;17.960;2023-03-14T10:22:12;12.30;99.90
17726;DHT22;8983;53.156;17.960;2023-03-14T10:24:46;12.40;99.90
17726;DHT22;8983;53.156;17.960;2023-03-14T10:27:19;12.30;99.90
17726;DHT22;8983;53.156;17.960;2023-03-14T10:29:52;12.40;99.90
17726;DHT22;8983;53.156;17.960;2023-03-14T10:32:32;12.40;99.90
17726;DHT22;8983;53.156;17.960;2023-03-14T10:35:07;12.40;99.90
17726;DHT22;8983;53.156;17.960;2023-03-14T10:37:48;12.50;99.90
17726;DHT22;8983;53.156;17.960;2023-03-14T10:40:19;12.50;99.90
17726;DHT22;8983;53.156;17.960;2023-03-14T10:42:48;12.50;99.90
17726;DHT22;8983;53.156;17.960;2023-03-14T10:45:40;12.60;99.90
17726;DHT22;8983;53.156;17.960;2023-03-14T10:48:19;12.60;99.90
17726;DHT22;8983;53.156;17.960;2023-03-14T10:50:51;12.60;99.90
17726;DHT22;8983;53.156;17.960;2023-03-14T10:53:23;12.70;99.90
17726;DHT22;8983;53.156;17.960;2023-03-14T10:55:55;12.80;99.90
17726;DHT22;8983;53.156;17.960;2023-03-14T10:58:26;12.80;99.90
17726;DHT22;8983;53.156;17.960;2023-03-14T11:01:05;12.80;99.90
17726;DHT22;8983;53.156;17.960;2023-03-14T11:03:40;12.70;99.90
17726;DHT22;8983;53.156;17.960;2023-03-14T11:06:12;12.70;99.90
17726;DHT22;8983;53.156;17.960;2023-03-14T11:08:46;12.70;99.90
17726;DHT22;8983;53.156;17.960;2023-03-14T11:11:20;12.70;99.90
17726;DHT22;8983;53.156;17.960;2023-03-14T11:13:58;12.70;99.90
17726;DHT22;8983;53.156;17.960;2023-03-14T11:16:34;12.70;99.90
17726;DHT22;8983;53.156;17.960;2023-03-14T11:22:28;12.80;99.90
17726;DHT22;8983;53.156;17.960;2023-03-14T11:25:21;12.70;99.90
17726;DHT22;8983;53.156;17.960;2023-03-14T11:27:57;12.80;99.90
17726;DHT22;8983;53.156;17.960;2023-03-14T11:30:34;12.90;99.90
17726;DHT22;8983;53.156;17.960;2023-03-14T11:33:07;12.80;99.90
17726;DHT22;8983;53.156;17.960;2023-03-14T11:35:41;12.90;99.90
17726;DHT22;8983;53.156;17.960;2023-03-14T11:38:16;12.90;99.90
17726;DHT22;8983;53.156;17.960;2023-03-14T11:40:48;12.90;99.90
17726;DHT22;8983;53.156;17.960;2023-03-14T11:43:20;13.00;99.90
17726;DHT22;8983;53.156;17.960;2023-03-14T11:45:55;13.00;99.90
17726;DHT22;8983;53.156;17.960;2023-03-14T11:48:29;13.00;99.90
17726;DHT22;8983;53.156;17.960;2023-03-14T11:51:04;13.10;99.90
17726;DHT22;8983;53.156;17.960;2023-03-14T11:53:42;13.00;99.90
17726;DHT22;8983;53.156;17.960;2023-03-14T11:56:18;13.10;99.90
17726;DHT22;8983;53.156;17.960;2023-03-14T11:58:54;13.10;99.90
17726;DHT22;8983;53.156;17.960;2023-03-14T12:01:28;13.10;99.90
17726;DHT22;8983;53.156;17.960;2023-03-14T12:04:06;13.10;99.90
17726;DHT22;8983;53.156;17.960;2023-03-14T12:06:43;13.10;99.90
17726;DHT22;8983;53.156;17.960;2023-03-14T12:09:12;13.00;99.90
17726;DHT22;8983;53.156;17.960;2023-03-14T12:11:46;13.00;99.90
17726;DHT22;8983;53.156;17.960;2023-03-14T12:14:21;12.90;99.90
17726;DHT22;8983;53.156;17.960;2023-03-14T12:16:53;12.80;99.90
17726;DHT22;8983;53.156;17.960;2023-03-14T12:19:32;12.80;99.90
17726;DHT22;8983;53.156;17.960;2023-03-14T12:22:07;12.70;99.90
17726;DHT22;8983;53.156;17.960;2023-03-14T12:24:37;12.60;99.90
17726;DHT22;8983;53.156;17.960;2023-03-14T12:27:13;12.60;99.90
17726;DHT22;8983;53.156;17.960;2023-03-14T12:30:01;12.70;99.90
17726;DHT22;8983;53.156;17.960;2023-03-14T12:32:33;12.80;99.90
17726;DHT22;8983;53.156;17.960;2023-03-14T12:35:30;13.00;99.90
17726;DHT22;8983;53.156;17.960;2023-03-14T12:38:02;13.10;99.90
17726;DHT22;8983;53.156;17.960;2023-03-14T12:40:33;13.20;99.90
17726;DHT22;8983;53.156;17.960;2023-03-14T12:43:24;13.20;99.90
17726;DHT22;8983;53.156;17.960;2023-03-14T12:46:18;13.20;99.90
17726;DHT22;8983;53.156;17.960;2023-03-14T12:48:49;13.20;99.90
17726;DHT22;8983;53.156;17.960;2023-03-14T12:51:19;13.20;99.90
17726;DHT22;8983;53.156;17.960;2023-03-14T12:54:00;13.30;99.90
17726;DHT22;8983;53.156;17.960;2023-03-14T12:59:33;13.20;99.90
17726;DHT22;8983;53.156;17.960;2023-03-14T13:02:13;13.20;99.90
17726;DHT22;8983;53.156;17.960;2023-03-14T13:04:46;13.20;99.90
17726;DHT22;8983;53.156;17.960;2023-03-14T13:07:33;13.20;99.90
17726;DHT22;8983;53.156;17.960;2023-03-14T13:12:52;13.10;99.90
17726;DHT22;8983;53.156;17.960;2023-03-14T13:15:27;13.10;99.90
17726;DHT22;8983;53.156;17.960;2023-03-14T13:18:01;13.10;99.90
17726;DHT22;8983;53.156;17.960;2023-03-14T13:20:32;13.20;99.90
17726;DHT22;8983;53.156;17.960;2023-03-14T13:23:02;13.30;99.90
17726;DHT22;8983;53.156;17.960;2023-03-14T13:25:32;13.30;99.90
17726;DHT22;8983;53.156;17.960;2023-03-14T13:28:01;13.30;99.90
17726;DHT22;8983;53.156;17.960;2023-03-14T13:30:40;13.30;99.90
17726;DHT22;8983;53.156;17.960;2023-03-14T13:33:12;13.30;99.90
17726;DHT22;8983;53.156;17.960;2023-03-14T13:35:42;13.20;99.90
17726;DHT22;8983;53.156;17.960;2023-03-14T13:38:17;13.20;99.90
17726;DHT22;8983;53.156;17.960;2023-03-14T13:40:46;13.10;99.90
17726;DHT22;8983;53.156;17.960;2023-03-14T13:43:18;13.10;99.90
17726;DHT22;8983;53.156;17.960;2023-03-14T13:45:52;13.10;99.90
17726;DHT22;8983;53.156;17.960;2023-03-14T13:48:22;13.10;99.90
17726;DHT22;8983;53.156;17.960;2023-03-14T13:50:53;13.20;99.90
17726;DHT22;8983;53.156;17.960;2023-03-14T13:53:22;13.20;99.90
17726;DHT22;8983;53.156;17.960;2023-03-14T13:55:52;13.20;99.90
17726;DHT22;8983;53.156;17.960;2023-03-14T13:58:24;13.20;99.90
17726;DHT22;8983;53.156;17.960;2023-03-14T14:01:03;13.20;99.90
17726;DHT22;8983;53.156;17.960;2023-03-14T14:03:34;13.20;99.90
17726;DHT22;8983;53.156;17.960;2023-03-14T14:06:16;13.30;99.90
17726;DHT22;8983;53.156;17.960;2023-03-14T14:08:47;13.40;99.90
17726;DHT22;8983;53.156;17.960;2023-03-14T14:11:22;13.60;99.90
17726;DHT22;8983;53.156;17.960;2023-03-14T14:14:01;13.80;99.90
17726;DHT22;8983;53.156;17.960;2023-03-14T14:16:31;13.90;99.90
17726;DHT22;8983;53.156;17.960;2023-03-14T14:19:00;14.00;99.90
17726;DHT22;8983;53.156;17.960;2023-03-14T14:21:29;14.00;99.90
17726;DHT22;8983;53.156;17.960;2023-03-14T14:23:58;14.00;99.90
17726;DHT22;8983;53.156;17.960;2023-03-14T14:26:27;14.10;99.90
17726;DHT22;8983;53.156;17.960;2023-03-14T14:29:00;13.90;99.90
17726;DHT22;8983;53.156;17.960;2023-03-14T14:31:31;14.30;99.90
17726;DHT22;8983;53.156;17.960;2023-03-14T14:33:59;14.40;99.90
17726;DHT22;8983;53.156;17.960;2023-03-14T14:36:31;14.60;99.90
17726;DHT22;8983;53.156;17.960;2023-03-14T14:39:03;14.70;99.90
17726;DHT22;8983;53.156;17.960;2023-03-14T14:41:32;14.70;99.90
17726;DHT22;8983;53.156;17.960;2023-03-14T14:44:03;14.90;99.90
17726;DHT22;8983;53.156;17.960;2023-03-14T14:46:35;15.00;99.90
17726;DHT22;8983;53.156;17.960;2023-03-14T14:49:06;15.20;99.90
17726;DHT22;8983;53.156;17.960;2023-03-14T14:51:41;15.10;99.90
17726;DHT22;8983;53.156;17.960;2023-03-14T14:54:13;15.00;99.90
17726;DHT22;8983;53.156;17.960;2023-03-14T14:56:47;14.80;99.90
17726;DHT22;8983;53.156;17.960;2023-03-14T14:59:23;14.60;99.90
17726;DHT22;8983;53.156;17.960;2023-03-14T15:01:58;14.50;99.90
17726;DHT22;8983;53.156;17.960;2023-03-14T15:04:27;14.40;99.90
17726;DHT22;8983;53.156;17.960;2023-03-14T15:06:57;14.30;99.90
17726;DHT22;8983;53.156;17.960;2023-03-14T15:09:25;14.30;99.90
17726;DHT22;8983;53.156;17.960;2023-03-14T15:11:53;14.20;99.90
17726;DHT22;8983;53.156;17.960;2023-03-14T15:14:22;14.20;99.90
17726;DHT22;8983;53.156;17.960;2023-03-14T15:16:50;14.20;99.90
17726;DHT22;8983;53.156;17.960;2023-03-14T15:19:23;14.20;99.90
17726;DHT22;8983;53.156;17.960;2023-03-14T15:21:52;14.20;99.90
17726;DHT22;8983;53.156;17.960;2023-03-14T15:24:21;14.10;99.90
17726;DHT22;8983;53.156;17.960;2023-03-14T15:26:49;14.10;99.90
17726;DHT22;8983;53.156;17.960;2023-03-14T15:29:17;14.00;99.90
17726;DHT22;8983;53.156;17.960;2023-03-14T15:31:45;14.00;99.90
17726;DHT22;8983;53.156;17.960;2023-03-14T15:34:14;13.90;99.90
17726;DHT22;8983;53.156;17.960;2023-03-14T15:36:44;13.90;99.90
17726;DHT22;8983;53.156;17.960;2023-03-14T15:39:12;14.00;99.90
17726;DHT22;8983;53.156;17.960;2023-03-14T15:41:40;13.90;99.90
17726;DHT22;8983;53.156;17.960;2023-03-14T15:44:08;13.90;99.90
17726;DHT22;8983;53.156;17.960;2023-03-14T15:46:37;13.80;99.90
17726;DHT22;8983;53.156;17.960;2023-03-14T15:49:05;13.80;99.90
17726;DHT22;8983;53.156;17.960;2023-03-14T15:51:33;13.90;99.90
17726;DHT22;8983;53.156;17.960;2023-03-14T15:54:02;13.80;99.90
17726;DHT22;8983;53.156;17.960;2023-03-14T15:56:30;13.80;99.90
17726;DHT22;8983;53.156;17.960;2023-03-14T15:58:59;13.80;99.90
17726;DHT22;8983;53.156;17.960;2023-03-14T16:01:27;13.80;99.90